createdAt,value
2022-08-03T00:00:24.260Z,43.26
2022-08-03T00:03:22.825Z,43.04
2022-08-03T00:06:23.320Z,42.99
2022-08-03T00:09:14.007Z,42.52
2022-08-03T00:12:04.224Z,42.56
2022-08-03T00:14:54.299Z,42.45
2022-08-03T00:17:52.665Z,42.28
2022-08-03T00:20:46.553Z,42.30
2022-08-03T00:23:51.481Z,42.10
2022-08-03T00:26:43.335Z,42.15
2022-08-03T00:29:33.546Z,42.20
2022-08-03T00:32:45.373Z,42.86
2022-08-03T00:35:50.270Z,42.94
2022-08-03T00:38:44.391Z,43.28
2022-08-03T00:41:34.625Z,43.15
2022-08-03T00:44:25.625Z,42.82
2022-08-03T00:47:16.467Z,42.49
2022-08-03T00:50:08.141Z,42.31
2022-08-03T00:53:01.182Z,42.17
2022-08-03T00:55:51.671Z,42.05
2022-08-03T00:58:41.866Z,42.04
2022-08-03T01:01:32.483Z,41.69
2022-08-03T01:04:24.456Z,41.77
2022-08-03T01:07:27.177Z,41.71
2022-08-03T01:10:26.466Z,41.68
2022-08-03T01:14:03.813Z,41.72
2022-08-03T01:16:46.347Z,41.64
2022-08-03T01:19:52.179Z,41.48
2022-08-03T01:23:12.204Z,41.41
2022-08-03T01:26:28.292Z,40.98
2022-08-03T01:29:44.777Z,41.15
2022-08-03T01:32:53.268Z,41.06
2022-08-03T01:35:56.167Z,40.92
2022-08-03T01:38:49.586Z,40.92
2022-08-03T01:41:46.573Z,40.79
2022-08-03T01:44:40.270Z,40.77
2022-08-03T01:47:32.262Z,40.50
2022-08-03T01:50:29.217Z,40.68
2022-08-03T01:53:21.157Z,40.89
2022-08-03T01:56:13.187Z,41.52
2022-08-03T01:59:04.761Z,41.58
2022-08-03T02:02:29.143Z,41.98
2022-08-03T02:05:21.428Z,42.84
2022-08-03T02:08:17.830Z,42.16
2022-08-03T02:11:09.340Z,42.29
2022-08-03T02:14:02.233Z,42.17
2022-08-03T02:16:53.058Z,41.98
2022-08-03T02:19:45.004Z,41.84
2022-08-03T02:22:37.878Z,40.91
2022-08-03T02:25:33.445Z,40.91
2022-08-03T02:28:28.970Z,41.12
2022-08-03T02:31:25.055Z,40.63
2022-08-03T02:34:18.675Z,40.58
2022-08-03T02:37:11.497Z,40.14
2022-08-03T02:40:06.009Z,39.53
2022-08-03T02:43:00.630Z,39.44
2022-08-03T02:45:52.977Z,39.05
2022-08-03T02:48:45.939Z,38.92
2022-08-03T02:51:38.051Z,38.79
2022-08-03T02:54:31.039Z,38.97
2022-08-03T02:57:23.309Z,38.47
2022-08-03T03:00:27.379Z,38.10
2022-08-03T03:03:19.090Z,37.76
2022-08-03T03:06:12.832Z,37.60
2022-08-03T03:09:11.480Z,37.69
2022-08-03T03:12:04.411Z,37.47
2022-08-03T03:14:55.553Z,37.56
2022-08-03T03:17:48.193Z,37.67
2022-08-03T03:20:41.175Z,37.71
2022-08-03T03:23:32.762Z,37.49
2022-08-03T03:26:42.296Z,37.69
2022-08-03T03:29:36.596Z,37.60
2022-08-03T03:32:32.276Z,37.64
2022-08-03T03:35:23.011Z,37.57
2022-08-03T03:38:13.436Z,37.58
2022-08-03T03:41:04.137Z,37.50
2022-08-03T03:43:55.135Z,37.45
2022-08-03T03:46:46.405Z,37.51
2022-08-03T03:49:38.029Z,37.18
2022-08-03T03:52:28.550Z,37.40
2022-08-03T03:55:20.830Z,37.03
2022-08-03T03:58:11.555Z,37.21
2022-08-03T04:01:02.702Z,37.13
2022-08-03T04:03:53.208Z,36.62
2022-08-03T04:07:01.328Z,36.90
2022-08-03T04:10:14.627Z,37.01
2022-08-03T04:13:10.159Z,37.08
2022-08-03T04:16:01.346Z,37.13
2022-08-03T04:18:56.078Z,37.18
2022-08-03T04:21:50.513Z,37.33
2022-08-03T04:24:44.991Z,37.36
2022-08-03T04:27:39.769Z,37.28
2022-08-03T04:30:47.897Z,37.27
2022-08-03T04:33:40.811Z,37.10
2022-08-03T04:36:38.384Z,37.28
2022-08-03T04:39:32.291Z,37.54
2022-08-03T04:42:24.905Z,37.71
2022-08-03T04:45:16.972Z,37.29
2022-08-03T04:48:08.943Z,37.23
2022-08-03T04:51:00.880Z,37.16
2022-08-03T04:53:51.592Z,37.25
2022-08-03T04:56:44.683Z,37.42
2022-08-03T04:59:35.582Z,37.55
2022-08-03T05:02:29.830Z,37.59
2022-08-03T05:05:20.006Z,37.55
2022-08-03T05:08:12.362Z,37.47
2022-08-03T05:11:03.054Z,37.23
2022-08-03T05:13:53.771Z,37.36
2022-08-03T05:16:44.404Z,37.39
2022-08-03T05:19:35.167Z,37.27
2022-08-03T05:22:25.853Z,37.30
2022-08-03T05:25:17.357Z,37.20
2022-08-03T05:28:10.283Z,37.38
2022-08-03T05:31:03.368Z,37.27
2022-08-03T05:33:55.116Z,37.06
2022-08-03T05:36:45.094Z,37.23
2022-08-03T05:40:11.819Z,37.29
2022-08-03T05:43:03.427Z,37.21
2022-08-03T05:46:01.514Z,37.38
2022-08-03T05:49:01.943Z,37.23
2022-08-03T05:52:00.424Z,37.27
2022-08-03T05:55:15.504Z,37.20
2022-08-03T05:58:07.134Z,37.24
2022-08-03T06:00:57.301Z,37.02
2022-08-03T06:03:47.075Z,37.04
2022-08-03T06:06:37.233Z,36.74
2022-08-03T06:09:56.604Z,36.91
2022-08-03T06:12:39.071Z,36.79
2022-08-03T06:15:30.837Z,36.88
2022-08-03T06:18:25.011Z,36.46
2022-08-03T06:21:17.649Z,36.31
2022-08-03T06:24:09.611Z,36.66
2022-08-03T06:27:11.057Z,38.26
2022-08-03T06:30:01.661Z,39.69
2022-08-03T06:32:52.539Z,40.42
2022-08-03T06:35:42.727Z,41.07
2022-08-03T06:38:34.848Z,41.82
2022-08-03T06:41:25.088Z,40.74
2022-08-03T06:44:15.631Z,39.48
2022-08-03T06:47:05.631Z,38.97
2022-08-03T06:50:17.091Z,38.97
2022-08-03T06:53:05.791Z,38.49
2022-08-03T06:55:55.519Z,38.07
2022-08-03T06:58:45.077Z,37.94
2022-08-03T07:01:34.994Z,39.47
2022-08-03T07:04:25.409Z,40.00
2022-08-03T07:07:16.043Z,40.13
2022-08-03T07:10:06.828Z,39.12
2022-08-03T07:12:56.976Z,39.27
2022-08-03T07:15:55.315Z,39.64
2022-08-03T07:18:45.937Z,39.75
2022-08-03T07:21:35.667Z,39.93
2022-08-03T07:24:25.814Z,40.85
2022-08-03T07:27:18.765Z,39.32
2022-08-03T07:30:11.561Z,39.95
2022-08-03T07:33:03.944Z,41.42
2022-08-03T07:35:54.069Z,41.93
2022-08-03T07:38:43.487Z,41.99
2022-08-03T07:41:33.246Z,43.10
2022-08-03T07:44:23.036Z,42.26
2022-08-03T07:47:22.237Z,41.36
2022-08-03T07:50:13.280Z,39.41
2022-08-03T07:53:05.599Z,38.88
2022-08-03T07:55:55.315Z,39.40
2022-08-03T07:58:45.075Z,39.43
2022-08-03T08:01:37.962Z,39.38
2022-08-03T08:04:28.255Z,40.31
2022-08-03T08:07:18.455Z,40.26
2022-08-03T08:10:12.716Z,40.73
2022-08-03T08:13:03.244Z,39.99
2022-08-03T08:15:53.765Z,38.88
2022-08-03T08:18:43.547Z,38.15
2022-08-03T08:21:52.966Z,37.83
2022-08-03T08:24:44.672Z,38.14
2022-08-03T08:28:25.302Z,37.64
2022-08-03T08:30:44.952Z,36.84
2022-08-03T08:34:03.241Z,36.57
2022-08-03T08:36:45.874Z,36.20
2022-08-03T08:39:37.551Z,36.06
2022-08-03T08:42:27.769Z,35.60
2022-08-03T08:45:18.934Z,36.09
2022-08-03T08:48:12.034Z,36.97
2022-08-03T08:51:03.633Z,37.24
2022-08-03T08:53:55.087Z,37.97
2022-08-03T08:56:55.705Z,38.05
2022-08-03T08:59:48.327Z,38.37
2022-08-03T09:02:39.932Z,38.02
2022-08-03T09:05:55.052Z,38.54
2022-08-03T09:08:43.139Z,39.32
2022-08-03T09:12:00.486Z,38.67
2022-08-03T09:15:00.867Z,39.21
2022-08-03T09:17:55.272Z,39.42
2022-08-03T09:20:45.746Z,39.85
2022-08-03T09:24:01.648Z,39.39
2022-08-03T09:26:54.685Z,39.24
2022-08-03T09:29:48.803Z,38.37
2022-08-03T09:32:40.252Z,37.69
2022-08-03T09:38:42.530Z,38.93
2022-08-03T09:41:33.011Z,39.01
2022-08-03T09:44:38.127Z,38.90
2022-08-03T09:47:34.208Z,38.78
2022-08-03T09:50:24.024Z,39.28
2022-08-03T09:53:15.702Z,40.76
2022-08-03T09:56:33.435Z,41.43
2022-08-03T09:59:25.375Z,41.61
2022-08-03T10:02:26.114Z,42.40
2022-08-03T10:05:19.634Z,42.09
2022-08-03T10:08:18.472Z,41.64
2022-08-03T10:11:08.602Z,41.98
2022-08-03T10:14:01.406Z,42.94
2022-08-03T10:16:51.842Z,42.88
2022-08-03T10:19:42.318Z,42.60
2022-08-03T10:22:36.416Z,42.60
2022-08-03T10:25:32.993Z,43.56
2022-08-03T10:28:24.284Z,42.72
2022-08-03T10:31:17.675Z,42.59
2022-08-03T10:34:13.287Z,42.01
2022-08-03T10:37:09.470Z,42.14
2022-08-03T10:40:01.442Z,42.04
2022-08-03T10:42:56.156Z,42.26
2022-08-03T10:45:47.420Z,42.81
2022-08-03T10:48:52.572Z,43.93
2022-08-03T10:51:43.852Z,45.21
2022-08-03T10:55:03.551Z,43.49
2022-08-03T10:57:59.173Z,42.06
2022-08-03T11:00:53.406Z,42.03
2022-08-03T11:04:18.294Z,42.65
2022-08-03T11:07:24.929Z,42.85
2022-08-03T11:10:32.734Z,42.03
2022-08-03T11:13:25.282Z,41.84
2022-08-03T11:16:23.629Z,42.64
2022-08-03T11:19:15.869Z,43.10
2022-08-03T11:22:05.804Z,43.32
2022-08-03T11:25:05.723Z,42.76
2022-08-03T11:28:30.838Z,42.67
2022-08-03T11:31:57.937Z,42.25
2022-08-03T11:35:10.871Z,42.84
2022-08-03T11:38:12.334Z,43.09
2022-08-03T11:41:02.845Z,43.18
2022-08-03T11:43:53.347Z,42.71
2022-08-03T11:46:43.466Z,42.70
2022-08-03T11:49:34.191Z,42.93
2022-08-03T11:52:27.298Z,43.16
2022-08-03T11:55:20.706Z,43.36
2022-08-03T11:59:17.419Z,43.26
2022-08-03T12:01:28.326Z,43.27
2022-08-03T12:04:18.484Z,42.73
2022-08-03T12:07:09.107Z,43.14
2022-08-03T12:10:13.766Z,43.25
2022-08-03T12:14:05.773Z,43.62
2022-08-03T12:16:23.872Z,43.27
2022-08-03T12:19:13.902Z,43.96
2022-08-03T12:22:04.055Z,43.21
2022-08-03T12:24:54.966Z,43.66
2022-08-03T12:27:45.286Z,44.20
2022-08-03T12:30:36.070Z,44.31
2022-08-03T12:33:28.061Z,43.48
2022-08-03T12:36:17.723Z,43.91
2022-08-03T12:39:11.920Z,43.78
2022-08-03T12:42:01.552Z,44.39
2022-08-03T12:44:51.494Z,44.44
2022-08-03T12:47:54.794Z,44.22
2022-08-03T12:50:45.595Z,44.12
2022-08-03T12:53:43.941Z,44.81
2022-08-03T12:56:34.713Z,45.39
2022-08-03T12:59:34.904Z,46.07
2022-08-03T13:02:28.953Z,44.99
2022-08-03T13:05:19.190Z,45.08
2022-08-03T13:08:21.755Z,44.66
2022-08-03T13:11:55.837Z,44.78
2022-08-03T13:14:37.650Z,44.52
2022-08-03T13:17:29.300Z,44.48
2022-08-03T13:20:19.016Z,42.36
2022-08-03T13:23:12.470Z,43.58
2022-08-03T13:26:13.001Z,44.72
2022-08-03T13:29:03.188Z,45.09
2022-08-03T13:31:56.420Z,44.77
2022-08-03T13:34:46.874Z,45.17
2022-08-03T13:37:37.704Z,45.81
2022-08-03T13:40:30.285Z,46.11
2022-08-03T13:43:20.906Z,45.76
2022-08-03T13:46:11.605Z,45.65
2022-08-03T13:49:02.148Z,45.83
2022-08-03T13:51:52.132Z,45.78
2022-08-03T13:54:43.790Z,45.83
2022-08-03T13:58:03.132Z,46.00
2022-08-03T14:00:56.382Z,46.95
2022-08-03T14:03:48.925Z,47.42
2022-08-03T14:06:39.228Z,47.59
2022-08-03T14:09:35.878Z,46.82
2022-08-03T14:12:26.686Z,47.23
2022-08-03T14:15:17.016Z,46.69
2022-08-03T14:18:07.106Z,46.62
2022-08-03T14:21:00.792Z,46.51
2022-08-03T14:23:56.867Z,46.42
2022-08-03T14:26:47.763Z,46.59
2022-08-03T14:29:38.317Z,46.31
2022-08-03T14:32:29.088Z,46.45
2022-08-03T14:35:18.851Z,47.20
2022-08-03T14:38:09.042Z,47.64
2022-08-03T14:40:59.021Z,47.55
2022-08-03T14:44:01.354Z,47.62
2022-08-03T14:46:52.506Z,48.03
2022-08-03T14:50:34.540Z,48.34
2022-08-03T14:52:52.463Z,48.96
2022-08-03T14:55:50.296Z,49.48
2022-08-03T14:58:41.429Z,49.01
2022-08-03T15:02:04.271Z,48.36
2022-08-03T15:04:42.314Z,48.91
2022-08-03T15:07:32.274Z,48.27
2022-08-03T15:10:22.359Z,48.06
2022-08-03T15:13:21.183Z,48.40
2022-08-03T15:16:11.074Z,47.99
2022-08-03T15:19:01.115Z,48.49
2022-08-03T15:21:50.640Z,47.57
2022-08-03T15:24:41.327Z,47.77
2022-08-03T15:27:32.401Z,47.67
2022-08-03T15:30:22.782Z,48.00
2022-08-03T15:33:13.053Z,48.22
2022-08-03T15:36:03.269Z,47.47
2022-08-03T15:38:53.857Z,47.63
2022-08-03T15:41:43.990Z,47.78
2022-08-03T15:44:34.551Z,47.72
2022-08-03T15:47:25.483Z,47.28
2022-08-03T15:50:15.238Z,46.28
2022-08-03T15:53:05.792Z,45.79
2022-08-03T15:55:58.761Z,45.86
2022-08-03T15:59:03.571Z,46.62
2022-08-03T16:02:00.380Z,46.69
2022-08-03T16:04:50.793Z,47.31
2022-08-03T16:08:02.944Z,47.96
2022-08-03T16:10:54.623Z,48.43
2022-08-03T16:14:04.713Z,48.87
2022-08-03T16:16:56.441Z,49.76
2022-08-03T16:19:46.631Z,50.20
2022-08-03T16:22:42.099Z,50.18
2022-08-03T16:25:34.561Z,49.77
2022-08-03T16:28:24.770Z,49.42
2022-08-03T16:31:14.801Z,47.43
2022-08-03T16:34:04.690Z,47.40
2022-08-03T16:36:55.666Z,47.63
2022-08-03T16:39:45.237Z,47.57
2022-08-03T16:42:36.738Z,47.67
2022-08-03T16:45:26.863Z,47.78
2022-08-03T16:48:17.064Z,47.43
2022-08-03T16:51:11.515Z,47.75
2022-08-03T16:54:07.614Z,47.84
2022-08-03T16:56:58.149Z,48.56
2022-08-03T16:59:48.579Z,48.75
2022-08-03T17:02:48.188Z,48.95
2022-08-03T17:05:47.975Z,48.92
2022-08-03T17:08:40.437Z,49.18
2022-08-03T17:11:30.288Z,49.80
2022-08-03T17:14:28.583Z,49.90
2022-08-03T17:17:26.502Z,50.01
2022-08-03T17:20:18.124Z,50.10
2022-08-03T17:23:35.243Z,49.48
2022-08-03T17:26:30.391Z,49.42
2022-08-03T17:29:22.901Z,49.74
2022-08-03T17:32:18.061Z,49.71
2022-08-03T17:35:12.417Z,48.04
2022-08-03T17:38:08.881Z,48.16
2022-08-03T17:41:01.201Z,47.65
2022-08-03T17:44:15.173Z,46.72
2022-08-03T17:47:12.056Z,47.05
2022-08-03T17:50:24.649Z,46.31
2022-08-03T17:53:24.323Z,45.60
2022-08-03T17:56:42.568Z,45.50
2022-08-03T17:59:52.463Z,44.72
2022-08-03T18:03:08.015Z,44.32
2022-08-03T18:06:11.605Z,44.37
2022-08-03T18:09:05.203Z,44.50
2022-08-03T18:12:19.697Z,44.65
2022-08-03T18:15:21.359Z,44.30
2022-08-03T18:18:15.383Z,43.82
2022-08-03T18:21:09.305Z,44.08
2022-08-03T18:24:07.436Z,44.16
2022-08-03T18:27:02.307Z,43.10
2022-08-03T18:29:54.872Z,42.46
2022-08-03T18:33:01.133Z,42.31
2022-08-03T18:35:56.725Z,41.81
2022-08-03T18:38:47.515Z,41.62
2022-08-03T18:41:42.094Z,41.16
2022-08-03T18:44:52.553Z,40.63
2022-08-03T18:47:56.061Z,40.13
2022-08-03T18:50:54.752Z,39.67
2022-08-03T18:54:02.632Z,39.36
2022-08-03T18:56:57.274Z,39.02
2022-08-03T18:59:54.130Z,38.68
2022-08-03T19:02:49.686Z,38.39
2022-08-03T19:06:04.463Z,38.10
2022-08-03T19:09:05.158Z,37.42
2022-08-03T19:12:14.443Z,37.39
2022-08-03T19:15:18.089Z,37.17
2022-08-03T19:18:26.856Z,37.02
2022-08-03T19:21:20.569Z,36.90
2022-08-03T19:24:13.994Z,36.80
2022-08-03T19:27:06.245Z,36.59
2022-08-03T19:30:04.931Z,35.85
2022-08-03T19:32:59.207Z,35.51
2022-08-03T19:35:55.547Z,35.80
2022-08-03T19:38:48.326Z,35.73
2022-08-03T19:41:53.586Z,35.64
2022-08-03T19:44:51.098Z,35.30
2022-08-03T19:47:47.056Z,35.17
2022-08-03T19:50:44.512Z,35.04
2022-08-03T19:53:42.808Z,35.00
2022-08-03T19:56:34.584Z,35.01
2022-08-03T19:59:26.522Z,34.91
2022-08-03T20:02:25.549Z,35.03
2022-08-03T20:05:16.286Z,34.98
2022-08-03T20:08:08.051Z,34.95
2022-08-03T20:11:01.811Z,34.90
2022-08-03T20:13:56.077Z,34.86
2022-08-03T20:16:47.130Z,34.96
2022-08-03T20:19:37.065Z,34.99
2022-08-03T20:22:33.031Z,34.90
2022-08-03T20:25:38.055Z,35.03
2022-08-03T20:28:50.426Z,35.05
2022-08-03T20:31:41.472Z,35.05
2022-08-03T20:34:32.007Z,35.01
2022-08-03T20:37:23.248Z,35.00
2022-08-03T20:40:13.862Z,34.88
2022-08-03T20:43:04.947Z,34.82
2022-08-03T20:45:59.125Z,34.83
2022-08-03T20:49:07.708Z,34.85
2022-08-03T20:51:59.053Z,34.79
2022-08-03T20:54:51.433Z,34.70
2022-08-03T20:57:43.389Z,34.60
2022-08-03T21:00:44.658Z,34.55
2022-08-03T21:03:40.958Z,34.35
2022-08-03T21:06:53.418Z,34.38
2022-08-03T21:09:51.894Z,34.26
2022-08-03T21:12:46.386Z,34.42
2022-08-03T21:16:02.560Z,34.68
2022-08-03T21:18:54.741Z,34.44
2022-08-03T21:21:48.208Z,34.49
2022-08-03T21:24:45.154Z,34.44
2022-08-03T21:27:35.516Z,34.48
2022-08-03T21:30:27.826Z,34.22
2022-08-03T21:33:18.293Z,34.17
2022-08-03T21:36:10.910Z,34.33
2022-08-03T21:39:02.265Z,34.23
2022-08-03T21:41:52.028Z,34.18
2022-08-03T21:44:42.301Z,34.04
2022-08-03T21:47:37.090Z,33.93
2022-08-03T21:50:27.339Z,34.14
2022-08-03T21:53:17.950Z,33.96
2022-08-03T21:56:10.973Z,34.03
2022-08-03T21:59:04.879Z,34.04
2022-08-03T22:01:58.522Z,33.79
2022-08-03T22:04:53.206Z,33.67
2022-08-03T22:07:46.422Z,33.62
2022-08-03T22:10:36.678Z,33.50
2022-08-03T22:13:44.120Z,33.47
2022-08-03T22:16:35.274Z,33.53
2022-08-03T22:19:24.996Z,33.66
2022-08-03T22:22:15.099Z,33.52
2022-08-03T22:25:11.592Z,33.48
2022-08-03T22:28:03.468Z,33.43
2022-08-03T22:30:54.647Z,33.36
2022-08-03T22:33:48.844Z,33.52
2022-08-03T22:36:41.837Z,33.60
2022-08-03T22:39:32.187Z,33.85
2022-08-03T22:42:37.020Z,34.05
2022-08-03T22:46:06.295Z,34.13
2022-08-03T22:48:41.057Z,34.20
2022-08-03T22:51:32.440Z,34.17
2022-08-03T22:54:22.668Z,34.31
2022-08-03T22:57:14.138Z,34.29
2022-08-03T23:00:07.542Z,34.38
2022-08-03T23:03:01.926Z,34.27
2022-08-03T23:06:08.742Z,34.37
2022-08-03T23:08:59.475Z,34.24
2022-08-03T23:11:50.069Z,34.40
2022-08-03T23:14:41.810Z,34.16
2022-08-03T23:17:33.517Z,34.27
2022-08-03T23:20:28.941Z,34.28
2022-08-03T23:23:44.668Z,34.48
2022-08-03T23:26:35.714Z,34.41
2022-08-03T23:29:27.674Z,34.40
2022-08-03T23:32:21.131Z,34.57
2022-08-03T23:36:27.586Z,34.79
2022-08-03T23:38:41.039Z,34.78
2022-08-03T23:41:32.229Z,34.90
2022-08-03T23:44:24.319Z,34.83
2022-08-03T23:47:16.102Z,34.94
2022-08-03T23:50:06.164Z,35.12
2022-08-03T23:53:10.149Z,35.07
2022-08-03T23:56:11.351Z,35.09
2022-08-03T23:59:15.902Z,35.15
